Time;durP1;ratioP1;P1;durP2;ratioP2;P2;SDS_P1;SDS_P2;PMS_P1;PMS_P2;Temp;Humidity;BMP_temperature;BMP_pressure;BME280_temperature;BME280_humidity;BME280_pressure;Samples;Min_cycle;Max_cycle;Signal;HPM_P1;HPM_P2
2023/12/07 00:00:41;;;;;;;12.30;8.18;;;;;;;;;;5042762;28;20045;-87
2023/12/07 00:03:07;;;;;;;13.57;8.50;;;;;;;;;;5064083;28;20067;-87
2023/12/07 00:05:33;;;;;;;12.63;8.70;;;;;;;;;;5069743;28;20489;-86
2023/12/07 00:07:59;;;;;;;12.43;8.52;;;;;;;;;;5069239;28;20051;-86
2023/12/07 00:10:25;;;;;;;11.85;8.35;;;;;;;;;;5069266;28;20045;-87
2023/12/07 00:12:52;;;;;;;13.27;9.05;;;;;;;;;;5059116;28;20417;-87
2023/12/07 00:15:18;;;;;;;13.85;8.60;;;;;;;;;;5049225;28;20135;-86
2023/12/07 00:17:44;;;;;;;11.55;8.85;;;;;;;;;;5049120;28;20124;-87
2023/12/07 00:20:10;;;;;;;13.20;8.93;;;;;;;;;;5056481;28;20486;-86
2023/12/07 00:22:36;;;;;;;13.50;9.25;;;;;;;;;;5068922;28;20059;-87
2023/12/07 00:25:04;;;;;;;15.18;9.10;;;;;;;;;;5072391;28;20055;-87
2023/12/07 00:27:30;;;;;;;12.57;9.60;;;;;;;;;;5071714;28;20055;-87
2023/12/07 00:29:56;;;;;;;13.40;9.07;;;;;;;;;;5070895;28;20047;-87
2023/12/07 00:32:22;;;;;;;13.82;9.15;;;;;;;;;;5062018;28;20379;-87
2023/12/07 00:34:49;;;;;;;13.63;8.43;;;;;;;;;;5063761;28;20072;-86
2023/12/07 00:37:15;;;;;;;13.02;8.82;;;;;;;;;;5051253;28;20059;-86
2023/12/07 00:39:41;;;;;;;14.00;9.23;;;;;;;;;;5051872;28;20048;-87
2023/12/07 00:42:07;;;;;;;14.05;9.65;;;;;;;;;;5035130;28;20059;-86
2023/12/07 00:44:33;;;;;;;13.88;9.82;;;;;;;;;;5050968;28;20418;-86
2023/12/07 00:47:00;;;;;;;11.13;8.43;;;;;;;;;;5035842;28;20041;-87
2023/12/07 00:49:26;;;;;;;16.30;9.70;;;;;;;;;;5051530;28;20075;-87
2023/12/07 00:51:52;;;;;;;13.20;9.48;;;;;;;;;;5053136;28;20067;-87
2023/12/07 00:54:18;;;;;;;13.23;9.00;;;;;;;;;;5068652;28;20500;-86
2023/12/07 00:56:44;;;;;;;16.77;9.50;;;;;;;;;;5056078;28;20052;-86
2023/12/07 00:59:10;;;;;;;13.70;9.85;;;;;;;;;;5071363;28;20444;-87
2023/12/07 01:01:38;;;;;;;16.25;10.93;;;;;;;;;;5069448;28;20504;-87
2023/12/07 01:04:05;;;;;;;14.95;9.90;;;;;;;;;;5067335;28;20123;-87
2023/12/07 01:06:31;;;;;;;14.20;9.85;;;;;;;;;;5068277;28;20056;-86
2023/12/07 01:08:57;;;;;;;13.88;10.20;;;;;;;;;;5043534;28;20032;-86
2023/12/07 01:11:23;;;;;;;15.00;10.63;;;;;;;;;;5071019;28;20044;-86
2023/12/07 01:13:49;;;;;;;14.85;9.63;;;;;;;;;;5089315;28;20086;-86
2023/12/07 01:16:15;;;;;;;12.70;9.25;;;;;;;;;;5070842;28;20090;-87
2023/12/07 01:18:41;;;;;;;15.90;10.75;;;;;;;;;;5071025;28;20486;-87
2023/12/07 01:21:07;;;;;;;13.27;9.48;;;;;;;;;;5051491;28;20058;-86
2023/12/07 01:23:33;;;;;;;17.20;10.93;;;;;;;;;;5050261;28;20060;-87
2023/12/07 01:26:02;;;;;;;15.80;10.48;;;;;;;;;;5067944;28;20534;-86
2023/12/07 01:28:28;;;;;;;16.48;11.15;;;;;;;;;;5050423;28;20044;-86
2023/12/07 01:30:55;;;;;;;14.48;10.07;;;;;;;;;;5050663;28;20049;-86
2023/12/07 01:33:22;;;;;;;13.38;10.02;;;;;;;;;;5050726;28;21069;-87
2023/12/07 01:35:48;;;;;;;17.05;11.07;;;;;;;;;;5051167;28;20075;-87
2023/12/07 01:38:14;;;;;;;22.88;13.38;;;;;;;;;;5050783;28;20411;-85
2023/12/07 01:40:40;;;;;;;20.67;13.05;;;;;;;;;;5053875;28;20136;-87
2023/12/07 01:43:06;;;;;;;24.38;13.05;;;;;;;;;;5070912;28;20547;-86
2023/12/07 01:45:32;;;;;;;18.17;11.57;;;;;;;;;;5053197;28;20044;-86
2023/12/07 01:47:59;;;;;;;16.20;10.63;;;;;;;;;;5070621;28;20076;-87
2023/12/07 01:50:26;;;;;;;15.70;11.55;;;;;;;;;;5070433;28;20041;-86
2023/12/07 01:52:58;;;;;;;15.88;11.38;;;;;;;;;;5070239;28;20044;-86
2023/12/07 01:55:26;;;;;;;15.85;11.02;;;;;;;;;;5068380;28;20097;-86
2023/12/07 01:57:52;;;;;;;16.13;10.18;;;;;;;;;;5056542;28;20044;-85
2023/12/07 02:00:18;;;;;;;17.00;11.20;;;;;;;;;;5054994;28;20060;-85
2023/12/07 02:02:47;;;;;;;15.35;10.57;;;;;;;;;;5054663;28;20370;-87
2023/12/07 02:05:13;;;;;;;16.05;11.27;;;;;;;;;;5054591;28;20049;-86
2023/12/07 02:07:41;;;;;;;15.93;10.18;;;;;;;;;;5047459;28;20192;-87
2023/12/07 02:10:07;;;;;;;22.73;12.93;;;;;;;;;;5068838;28;20036;-87
2023/12/07 02:12:34;;;;;;;22.02;12.85;;;;;;;;;;5047007;28;20044;-86
2023/12/07 02:15:01;;;;;;;20.80;11.32;;;;;;;;;;5074820;28;20055;-86
2023/12/07 02:17:45;;;;;;;21.20;11.15;;;;;;;;;;5074119;28;20093;-87
2023/12/07 02:20:11;;;;;;;16.83;10.93;;;;;;;;;;5073934;28;20509;-86
2023/12/07 02:22:49;;;;;;;14.82;10.45;;;;;;;;;;5073339;28;20627;-84
2023/12/07 02:25:17;;;;;;;15.90;10.93;;;;;;;;;;5065614;28;20094;-87
2023/12/07 02:27:47;;;;;;;16.17;10.40;;;;;;;;;;5055087;28;20051;-86
2023/12/07 02:30:13;;;;;;;15.50;10.10;;;;;;;;;;5054622;28;20045;-86
2023/12/07 02:32:41;;;;;;;16.48;10.88;;;;;;;;;;5054252;28;20087;-87
2023/12/07 02:35:08;;;;;;;16.45;10.38;;;;;;;;;;5053925;28;20048;-86
2023/12/07 02:37:45;;;;;;;14.45;11.15;;;;;;;;;;5053609;28;20137;-87
2023/12/07 02:40:14;;;;;;;16.35;10.52;;;;;;;;;;5045202;28;20047;-86
2023/12/07 02:42:41;;;;;;;15.63;10.38;;;;;;;;;;5045137;28;20047;-86
2023/12/07 02:45:08;;;;;;;16.92;10.65;;;;;;;;;;5038384;28;20486;-86
2023/12/07 02:47:34;;;;;;;16.55;10.82;;;;;;;;;;5054060;28;20041;-87
2023/12/07 02:50:00;;;;;;;14.27;9.95;;;;;;;;;;5054355;28;20575;-86
2023/12/07 02:52:26;;;;;;;14.02;9.80;;;;;;;;;;5053945;28;20704;-85
2023/12/07 02:54:52;;;;;;;18.73;8.95;;;;;;;;;;5053518;28;20045;-87
2023/12/07 02:57:18;;;;;;;14.70;10.18;;;;;;;;;;5052995;28;20040;-87
2023/12/07 02:59:45;;;;;;;15.68;9.75;;;;;;;;;;5054178;28;20044;-87
2023/12/07 03:02:11;;;;;;;13.95;9.38;;;;;;;;;;5058308;28;20525;-87
2023/12/07 03:04:37;;;;;;;16.05;10.63;;;;;;;;;;5056389;28;20048;-86
2023/12/07 03:07:03;;;;;;;14.57;9.45;;;;;;;;;;5073638;28;20711;-87
2023/12/07 03:09:29;;;;;;;14.88;10.82;;;;;;;;;;5072813;28;20154;-87
2023/12/07 03:11:55;;;;;;;15.82;10.20;;;;;;;;;;5057704;28;20083;-87
2023/12/07 03:14:21;;;;;;;17.67;10.57;;;;;;;;;;5066326;28;20595;-87
2023/12/07 03:16:47;;;;;;;16.33;10.38;;;;;;;;;;5073202;28;20191;-87
2023/12/07 03:19:14;;;;;;;18.60;11.20;;;;;;;;;;5073083;28;20414;-86
2023/12/07 03:21:42;;;;;;;17.13;10.63;;;;;;;;;;5056789;28;20184;-87
2023/12/07 03:24:09;;;;;;;20.17;11.82;;;;;;;;;;5055455;28;20702;-87
2023/12/07 03:26:35;;;;;;;19.90;11.98;;;;;;;;;;5054319;28;20064;-87
2023/12/07 03:29:01;;;;;;;21.35;12.15;;;;;;;;;;5069221;28;20033;-87
2023/12/07 03:31:28;;;;;;;21.02;13.45;;;;;;;;;;5061752;28;20194;-87
2023/12/07 03:33:54;;;;;;;20.73;12.48;;;;;;;;;;5037402;28;20808;-87
2023/12/07 03:36:20;;;;;;;18.77;12.13;;;;;;;;;;5036991;28;20053;-86
2023/12/07 03:38:46;;;;;;;20.17;12.10;;;;;;;;;;5072302;28;20086;-87
2023/12/07 03:41:12;;;;;;;21.10;13.02;;;;;;;;;;5072779;28;20075;-86
2023/12/07 03:43:38;;;;;;;19.10;12.55;;;;;;;;;;5036613;28;20040;-87
2023/12/07 03:46:05;;;;;;;23.05;13.07;;;;;;;;;;5052924;28;20032;-88
2023/12/07 03:48:31;;;;;;;18.70;12.20;;;;;;;;;;5037811;28;20076;-86
2023/12/07 03:50:57;;;;;;;19.65;12.93;;;;;;;;;;5073305;28;20457;-87
2023/12/07 03:53:23;;;;;;;23.40;13.48;;;;;;;;;;5055247;28;20036;-87
2023/12/07 03:55:48;;;;;;;21.70;12.00;;;;;;;;;;5072567;28;20059;-87
2023/12/07 03:58:15;;;;;;;19.27;12.38;;;;;;;;;;5071539;28;20086;-86
2023/12/07 04:00:41;;;;;;;22.95;13.10;;;;;;;;;;5072173;28;20102;-87
2023/12/07 04:03:07;;;;;;;22.90;13.43;;;;;;;;;;5068385;28;20498;-86
2023/12/07 04:05:33;;;;;;;19.98;13.10;;;;;;;;;;5066851;28;20051;-86
2023/12/07 04:08:00;;;;;;;22.75;13.30;;;;;;;;;;5066746;28;20097;-87
2023/12/07 04:10:26;;;;;;;23.45;13.73;;;;;;;;;;5072860;28;20055;-87
2023/12/07 04:12:55;;;;;;;39.58;20.45;;;;;;;;;;5054871;28;20444;-87
2023/12/07 04:15:21;;;;;;;45.90;20.75;;;;;;;;;;5055995;28;20075;-87
2023/12/07 04:17:47;;;;;;;75.50;31.77;;;;;;;;;;5067390;28;20033;-87
2023/12/07 04:20:13;;;;;;;104.38;38.35;;;;;;;;;;5055135;28;20040;-87
2023/12/07 04:22:39;;;;;;;96.25;36.38;;;;;;;;;;5068990;28;20048;-87
2023/12/07 04:25:06;;;;;;;52.40;24.15;;;;;;;;;;5049241;28;20044;-87
2023/12/07 04:27:33;;;;;;;66.72;28.90;;;;;;;;;;5054549;28;20050;-87
2023/12/07 04:29:59;;;;;;;78.40;33.28;;;;;;;;;;5072191;28;20055;-87
2023/12/07 04:32:25;;;;;;;68.63;31.10;;;;;;;;;;5050938;28;20036;-87
2023/12/07 04:34:52;;;;;;;67.57;29.80;;;;;;;;;;5071988;28;20052;-87
2023/12/07 04:37:18;;;;;;;45.90;20.25;;;;;;;;;;5045950;28;20047;-87
2023/12/07 04:39:44;;;;;;;40.53;20.23;;;;;;;;;;5071274;28;20044;-87
2023/12/07 04:42:10;;;;;;;27.38;16.60;;;;;;;;;;5067710;28;20067;-87
2023/12/07 04:44:36;;;;;;;37.65;18.02;;;;;;;;;;5068284;28;20064;-86
2023/12/07 04:47:02;;;;;;;54.83;25.70;;;;;;;;;;5053516;28;20052;-86
2023/12/07 04:49:28;;;;;;;60.88;29.20;;;;;;;;;;5068815;28;20043;-87
2023/12/07 04:51:54;;;;;;;44.60;23.45;;;;;;;;;;5049056;28;20059;-87
2023/12/07 04:54:20;;;;;;;52.13;23.70;;;;;;;;;;5033678;28;20094;-87
2023/12/07 04:56:46;;;;;;;39.70;20.35;;;;;;;;;;5086886;28;20044;-87
2023/12/07 04:59:12;;;;;;;33.97;18.92;;;;;;;;;;5069160;28;20041;-87
2023/12/07 05:01:38;;;;;;;37.38;18.38;;;;;;;;;;5061932;28;20048;-87
2023/12/07 05:04:05;;;;;;;32.83;17.67;;;;;;;;;;5052496;28;20139;-87
2023/12/07 05:06:32;;;;;;;32.53;17.75;;;;;;;;;;5067606;28;20584;-87
2023/12/07 05:08:57;;;;;;;32.38;16.63;;;;;;;;;;5067238;28;20079;-87
2023/12/07 05:11:23;;;;;;;29.27;15.43;;;;;;;;;;5068319;28;20101;-87
2023/12/07 05:13:49;;;;;;;23.10;15.00;;;;;;;;;;5069192;28;20056;-86
2023/12/07 05:16:16;;;;;;;27.13;15.27;;;;;;;;;;5070357;28;20497;-87
2023/12/07 05:18:42;;;;;;;26.10;15.25;;;;;;;;;;5051158;28;20555;-87
2023/12/07 05:21:08;;;;;;;26.85;15.85;;;;;;;;;;5048549;28;20040;-87
2023/12/07 05:23:34;;;;;;;27.23;15.82;;;;;;;;;;5068925;28;20520;-87
2023/12/07 05:26:00;;;;;;;26.30;15.48;;;;;;;;;;5053808;28;20056;-87
2023/12/07 05:28:27;;;;;;;32.47;15.30;;;;;;;;;;5070177;28;20047;-87
2023/12/07 05:30:54;;;;;;;26.30;15.75;;;;;;;;;;5071251;28;20048;-87
2023/12/07 05:33:20;;;;;;;28.13;16.83;;;;;;;;;;5061551;28;20052;-87
2023/12/07 05:35:46;;;;;;;27.85;15.75;;;;;;;;;;5043435;28;20078;-85
2023/12/07 05:38:12;;;;;;;24.77;14.95;;;;;;;;;;5070794;28;20478;-86
2023/12/07 05:40:38;;;;;;;26.95;15.93;;;;;;;;;;5071193;28;20078;-87
2023/12/07 05:43:04;;;;;;;28.20;15.48;;;;;;;;;;5071225;28;20564;-87
2023/12/07 05:45:30;;;;;;;29.38;14.40;;;;;;;;;;5071208;28;20080;-87
2023/12/07 05:47:57;;;;;;;26.85;16.05;;;;;;;;;;5071115;28;20102;-87
2023/12/07 05:50:23;;;;;;;26.23;14.40;;;;;;;;;;5060739;28;20409;-87
2023/12/07 05:52:49;;;;;;;26.27;15.25;;;;;;;;;;5060953;28;20051;-87
2023/12/07 05:55:15;;;;;;;29.63;16.02;;;;;;;;;;5067278;28;20505;-87
2023/12/07 05:57:41;;;;;;;30.80;15.18;;;;;;;;;;5071549;28;20401;-88
2023/12/07 06:00:09;;;;;;;28.60;15.50;;;;;;;;;;5071317;28;20490;-88
2023/12/07 06:02:35;;;;;;;26.52;14.88;;;;;;;;;;5070165;28;20067;-87
2023/12/07 06:05:03;;;;;;;27.75;15.23;;;;;;;;;;5070831;28;20087;-88
2023/12/07 06:07:30;;;;;;;27.60;15.00;;;;;;;;;;5054393;28;20816;-87
2023/12/07 06:09:56;;;;;;;27.52;15.45;;;;;;;;;;5059845;28;20040;-88
2023/12/07 06:12:22;;;;;;;26.02;15.65;;;;;;;;;;5051037;28;20113;-87
2023/12/07 06:14:48;;;;;;;24.33;14.32;;;;;;;;;;5051012;28;20044;-87
2023/12/07 06:17:14;;;;;;;23.73;14.88;;;;;;;;;;5051868;28;20083;-88
2023/12/07 06:19:42;;;;;;;25.17;15.05;;;;;;;;;;5051047;28;20084;-87
2023/12/07 06:22:08;;;;;;;24.33;14.80;;;;;;;;;;5034576;28;20047;-87
2023/12/07 06:24:35;;;;;;;24.25;14.32;;;;;;;;;;5054784;28;20060;-88
2023/12/07 06:27:02;;;;;;;26.55;14.50;;;;;;;;;;5055192;28;20048;-88
2023/12/07 06:29:29;;;;;;;30.52;16.33;;;;;;;;;;5064808;28;20040;-89
2023/12/07 06:31:55;;;;;;;26.60;15.90;;;;;;;;;;5057723;28;20051;-87
2023/12/07 06:34:21;;;;;;;29.27;16.20;;;;;;;;;;5054613;28;20510;-87
2023/12/07 06:36:48;;;;;;;33.80;16.98;;;;;;;;;;5053879;28;20700;-88
2023/12/07 06:39:14;;;;;;;25.88;15.38;;;;;;;;;;5056868;28;20760;-87
2023/12/07 06:41:40;;;;;;;30.27;17.85;;;;;;;;;;5071045;28;20509;-88
2023/12/07 06:44:08;;;;;;;30.73;17.73;;;;;;;;;;5070747;28;20044;-86
2023/12/07 06:46:34;;;;;;;29.95;17.25;;;;;;;;;;5056875;28;20190;-87
2023/12/07 06:49:00;;;;;;;30.73;18.05;;;;;;;;;;5074164;28;20039;-86
2023/12/07 06:51:26;;;;;;;32.10;17.73;;;;;;;;;;5056531;28;20048;-86
2023/12/07 06:53:52;;;;;;;35.58;17.30;;;;;;;;;;5063033;28;20047;-87
2023/12/07 06:56:18;;;;;;;28.17;15.77;;;;;;;;;;5053334;28;20052;-86
2023/12/07 06:58:44;;;;;;;32.08;17.40;;;;;;;;;;5053776;28;20041;-88
2023/12/07 07:01:10;;;;;;;28.25;16.25;;;;;;;;;;5064702;28;20040;-88
2023/12/07 07:03:36;;;;;;;32.20;17.80;;;;;;;;;;5073973;28;20059;-88
2023/12/07 07:06:02;;;;;;;28.83;16.42;;;;;;;;;;5066800;28;20041;-88
2023/12/07 07:08:28;;;;;;;29.67;16.65;;;;;;;;;;5067227;28;20501;-88
2023/12/07 07:10:54;;;;;;;32.70;18.50;;;;;;;;;;5057042;28;20048;-88
2023/12/07 07:13:20;;;;;;;33.00;17.83;;;;;;;;;;5074291;28;20457;-89
2023/12/07 07:15:48;;;;;;;30.17;16.48;;;;;;;;;;5074868;28;20113;-88
2023/12/07 07:18:14;;;;;;;30.20;16.73;;;;;;;;;;5074011;28;20055;-87
2023/12/07 07:20:40;;;;;;;30.05;16.73;;;;;;;;;;5058166;28;20048;-87
2023/12/07 07:23:08;;;;;;;30.77;16.85;;;;;;;;;;5071484;28;20079;-88
2023/12/07 07:25:34;;;;;;;26.52;16.35;;;;;;;;;;5035971;28;20048;-88
2023/12/07 07:28:00;;;;;;;31.05;17.92;;;;;;;;;;5050429;28;20528;-88
2023/12/07 07:30:26;;;;;;;28.73;16.73;;;;;;;;;;5051390;28;20056;-89
2023/12/07 07:32:52;;;;;;;30.70;17.42;;;;;;;;;;5051230;28;20040;-88
2023/12/07 07:35:18;;;;;;;26.42;16.13;;;;;;;;;;5049766;28;20117;-87
2023/12/07 07:37:44;;;;;;;27.67;15.80;;;;;;;;;;5065394;28;20055;-87
2023/12/07 07:40:11;;;;;;;29.80;16.73;;;;;;;;;;5042770;28;20414;-86
2023/12/07 07:42:40;;;;;;;28.42;17.13;;;;;;;;;;5038480;28;20049;-87
2023/12/07 07:45:08;;;;;;;25.85;16.15;;;;;;;;;;5059044;28;20493;-85
2023/12/07 07:47:34;;;;;;;24.52;15.80;;;;;;;;;;5068298;28;20086;-85
2023/12/07 07:50:05;;;;;;;28.55;15.77;;;;;;;;;;5065975;28;20055;-85
2023/12/07 07:52:31;;;;;;;30.70;17.05;;;;;;;;;;5049813;28;20138;-84
2023/12/07 07:54:57;;;;;;;24.17;15.35;;;;;;;;;;5049505;28;20052;-85
2023/12/07 07:57:23;;;;;;;26.38;16.27;;;;;;;;;;5068385;28;20040;-85
2023/12/07 07:59:49;;;;;;;26.27;14.77;;;;;;;;;;5061188;28;20052;-85
2023/12/07 08:02:15;;;;;;;27.77;16.15;;;;;;;;;;5047630;28;20052;-85
2023/12/07 08:04:41;;;;;;;25.98;15.98;;;;;;;;;;5047000;28;20049;-86
2023/12/07 08:07:07;;;;;;;30.27;17.05;;;;;;;;;;5040116;28;20110;-87
2023/12/07 08:09:33;;;;;;;27.88;16.23;;;;;;;;;;5066113;28;20036;-86
2023/12/07 08:12:01;;;;;;;27.80;16.45;;;;;;;;;;5062087;28;20049;-86
2023/12/07 08:14:27;;;;;;;29.52;16.70;;;;;;;;;;5047911;28;20045;-86
2023/12/07 08:16:53;;;;;;;27.48;16.58;;;;;;;;;;5048754;28;20073;-85
2023/12/07 08:19:19;;;;;;;27.33;16.23;;;;;;;;;;5034235;28;20777;-82
2023/12/07 08:21:45;;;;;;;32.78;17.42;;;;;;;;;;5050409;28;20556;-88
2023/12/07 08:24:12;;;;;;;25.23;15.20;;;;;;;;;;5068323;28;20048;-87
2023/12/07 08:26:39;;;;;;;25.67;16.27;;;;;;;;;;5050703;28;20491;-86
2023/12/07 08:29:06;;;;;;;27.65;15.88;;;;;;;;;;5050246;28;20041;-87
2023/12/07 08:31:32;;;;;;;31.67;16.77;;;;;;;;;;5050557;28;20045;-87
2023/12/07 08:33:58;;;;;;;27.13;15.43;;;;;;;;;;5066703;28;20137;-87
2023/12/07 08:36:24;;;;;;;32.67;18.60;;;;;;;;;;5065984;28;20798;-85
2023/12/07 08:38:52;;;;;;;30.77;17.08;;;;;;;;;;5049431;28;20087;-86
2023/12/07 08:41:18;;;;;;;32.83;18.10;;;;;;;;;;5066696;28;20052;-86
2023/12/07 08:43:47;;;;;;;29.90;16.95;;;;;;;;;;5050437;28;20102;-87
2023/12/07 08:46:13;;;;;;;33.88;17.80;;;;;;;;;;5067930;28;20049;-86
2023/12/07 08:48:39;;;;;;;38.30;20.92;;;;;;;;;;5051645;28;20056;-87
2023/12/07 08:51:05;;;;;;;41.35;22.45;;;;;;;;;;5062362;28;20064;-86
2023/12/07 08:53:31;;;;;;;35.35;20.30;;;;;;;;;;5030601;28;20048;-87
2023/12/07 08:55:57;;;;;;;35.25;19.25;;;;;;;;;;5064805;28;20048;-87
2023/12/07 08:58:23;;;;;;;44.70;23.27;;;;;;;;;;5031273;28;20060;-87
2023/12/07 09:00:50;;;;;;;38.90;20.73;;;;;;;;;;5064378;28;20045;-86
2023/12/07 09:03:16;;;;;;;39.78;22.52;;;;;;;;;;5064796;28;20502;-88
2023/12/07 09:05:43;;;;;;;36.13;20.80;;;;;;;;;;5064005;28;20055;-87
2023/12/07 09:08:10;;;;;;;33.63;19.05;;;;;;;;;;5065428;28;20044;-87
2023/12/07 09:10:35;;;;;;;46.35;24.45;;;;;;;;;;5047040;28;20107;-86
2023/12/07 09:13:05;;;;;;;44.97;24.00;;;;;;;;;;5047578;28;20053;-87
2023/12/07 09:15:32;;;;;;;47.03;21.08;;;;;;;;;;5031492;28;20754;-87
2023/12/07 09:17:58;;;;;;;91.90;27.15;;;;;;;;;;5048417;28;20044;-87
2023/12/07 09:20:27;;;;;;;137.45;31.30;;;;;;;;;;5031628;28;20186;-88
2023/12/07 09:22:55;;;;;;;163.80;30.50;;;;;;;;;;5066309;28;20048;-87
2023/12/07 09:25:21;;;;;;;213.30;36.17;;;;;;;;;;5050132;28;20052;-87
2023/12/07 09:27:48;;;;;;;199.07;32.25;;;;;;;;;;5050527;28;20136;-87
2023/12/07 09:30:14;;;;;;;204.40;33.13;;;;;;;;;;5050410;28;20131;-87
2023/12/07 09:32:42;;;;;;;142.15;35.95;;;;;;;;;;5050465;28;20051;-87
2023/12/07 09:35:14;;;;;;;176.63;29.70;;;;;;;;;;5057022;28;20080;-87
2023/12/07 09:37:40;;;;;;;177.80;29.33;;;;;;;;;;5033647;28;20145;-87
2023/12/07 09:40:07;;;;;;;165.95;28.75;;;;;;;;;;5050701;28;20049;-87
2023/12/07 09:42:33;;;;;;;223.88;31.90;;;;;;;;;;5050320;28;20059;-87
2023/12/07 09:44:59;;;;;;;275.25;36.00;;;;;;;;;;5050709;28;20127;-87
2023/12/07 09:47:29;;;;;;;159.80;27.35;;;;;;;;;;5033192;28;20052;-86
2023/12/07 09:49:55;;;;;;;141.07;25.50;;;;;;;;;;5050267;28;20379;-86
2023/12/07 09:52:22;;;;;;;124.57;23.38;;;;;;;;;;5049964;28;20052;-87
2023/12/07 09:54:49;;;;;;;123.65;23.77;;;;;;;;;;5033801;28;20076;-87
2023/12/07 09:57:16;;;;;;;119.20;21.25;;;;;;;;;;5033782;28;20481;-86
2023/12/07 09:59:42;;;;;;;97.63;19.88;;;;;;;;;;5050428;28;20106;-86
2023/12/07 10:02:08;;;;;;;86.15;20.65;;;;;;;;;;5047866;28;20366;-86
2023/12/07 10:04:34;;;;;;;93.47;19.85;;;;;;;;;;5051487;28;20044;-86
2023/12/07 10:07:00;;;;;;;86.55;20.73;;;;;;;;;;5049950;28;20040;-86
2023/12/07 10:09:26;;;;;;;98.63;20.95;;;;;;;;;;5049981;28;20405;-87
2023/12/07 10:12:05;;;;;;;90.15;19.13;;;;;;;;;;5033123;28;20086;-86
2023/12/07 10:14:31;;;;;;;100.28;20.75;;;;;;;;;;5033736;28;20063;-86
2023/12/07 10:16:57;;;;;;;91.60;20.33;;;;;;;;;;5050016;28;20760;-86
2023/12/07 10:19:25;;;;;;;88.53;21.00;;;;;;;;;;5036856;28;20098;-86
2023/12/07 10:21:51;;;;;;;99.85;22.40;;;;;;;;;;5036567;28;20048;-86
2023/12/07 10:24:21;;;;;;;116.93;20.85;;;;;;;;;;5053710;28;20052;-86
2023/12/07 10:26:48;;;;;;;84.28;19.48;;;;;;;;;;5053755;28;20145;-86
2023/12/07 10:29:14;;;;;;;89.68;22.35;;;;;;;;;;5037570;28;20107;-86
2023/12/07 10:31:41;;;;;;;81.10;20.40;;;;;;;;;;5036952;28;20052;-86
2023/12/07 10:34:10;;;;;;;94.00;20.27;;;;;;;;;;5055038;28;20090;-86
2023/12/07 10:36:36;;;;;;;83.47;20.00;;;;;;;;;;5056861;28;20093;-86
2023/12/07 10:39:06;;;;;;;84.00;19.23;;;;;;;;;;5057151;28;20097;-86
2023/12/07 10:41:33;;;;;;;80.55;19.70;;;;;;;;;;5057091;28;20055;-86
2023/12/07 10:44:05;;;;;;;97.65;20.83;;;;;;;;;;5073531;28;20490;-85
2023/12/07 10:46:34;;;;;;;111.90;20.48;;;;;;;;;;5056627;28;20080;-85
2023/12/07 10:49:01;;;;;;;106.82;19.67;;;;;;;;;;5054885;28;20044;-86
2023/12/07 10:51:30;;;;;;;81.82;19.52;;;;;;;;;;5072663;28;20048;-85
2023/12/07 10:53:58;;;;;;;84.93;20.73;;;;;;;;;;5057278;28;20083;-86
2023/12/07 10:56:39;;;;;;;85.82;19.13;;;;;;;;;;5073235;28;20545;-86
2023/12/07 10:59:06;;;;;;;83.00;20.40;;;;;;;;;;5073285;28;20829;-87
2023/12/07 11:01:33;;;;;;;73.72;20.30;;;;;;;;;;5073091;28;20117;-86
2023/12/07 11:03:59;;;;;;;86.38;22.60;;;;;;;;;;5070925;28;20044;-86
2023/12/07 11:06:25;;;;;;;83.18;20.67;;;;;;;;;;5064058;28;20041;-85
2023/12/07 11:08:55;;;;;;;88.28;21.67;;;;;;;;;;5053023;28;20127;-86
2023/12/07 11:11:33;;;;;;;96.72;21.58;;;;;;;;;;5055105;28;20123;-84
2023/12/07 11:14:01;;;;;;;84.40;20.85;;;;;;;;;;5055850;28;20040;-85
2023/12/07 11:16:31;;;;;;;101.28;22.40;;;;;;;;;;5056099;28;20039;-85
2023/12/07 11:18:57;;;;;;;78.57;22.15;;;;;;;;;;5073017;28;20138;-86
2023/12/07 11:21:26;;;;;;;86.55;23.80;;;;;;;;;;5055826;28;20088;-86
2023/12/07 11:23:53;;;;;;;86.03;21.35;;;;;;;;;;5072344;28;20062;-86
2023/12/07 11:26:25;;;;;;;75.93;22.60;;;;;;;;;;5044581;28;20049;-84
2023/12/07 11:28:51;;;;;;;67.68;21.20;;;;;;;;;;5058597;28;20054;-85
2023/12/07 11:31:17;;;;;;;96.50;23.27;;;;;;;;;;5069885;28;20391;-85
2023/12/07 11:33:45;;;;;;;101.80;23.90;;;;;;;;;;5071601;28;20062;-85
2023/12/07 11:36:12;;;;;;;111.65;24.13;;;;;;;;;;5054768;28;20075;-87
2023/12/07 11:38:39;;;;;;;89.72;23.00;;;;;;;;;;5071838;28;20075;-88
2023/12/07 11:41:05;;;;;;;85.68;21.95;;;;;;;;;;5059509;28;20040;-88
2023/12/07 11:43:40;;;;;;;78.50;23.10;;;;;;;;;;5068580;28;20048;-88
2023/12/07 11:46:09;;;;;;;74.70;22.75;;;;;;;;;;5071748;28;20131;-87
2023/12/07 11:48:35;;;;;;;83.05;22.73;;;;;;;;;;5072301;28;20059;-88
2023/12/07 11:51:05;;;;;;;64.07;22.95;;;;;;;;;;5055845;28;20429;-87
2023/12/07 11:53:38;;;;;;;62.08;22.70;;;;;;;;;;5054509;28;20040;-85
2023/12/07 11:56:07;;;;;;;;;;;;;;;;;;5071541;28;20042;-90
2023/12/07 11:58:36;;;;;;;57.35;22.48;;;;;;;;;;5048799;28;19927;-90
2023/12/07 12:01:04;;;;;;;57.55;23.30;;;;;;;;;;5053972;28;20032;-91
2023/12/07 12:03:32;;;;;;;69.85;23.77;;;;;;;;;;5037726;28;20044;-88
2023/12/07 12:05:58;;;;;;;78.55;22.60;;;;;;;;;;5052854;28;20135;-85
2023/12/07 12:08:24;;;;;;;55.40;20.35;;;;;;;;;;5050666;28;20561;-85
2023/12/07 12:10:53;;;;;;;55.50;20.48;;;;;;;;;;5051873;28;20638;-85
2023/12/07 12:13:19;;;;;;;55.17;21.05;;;;;;;;;;5072180;28;20631;-87
2023/12/07 12:15:49;;;;;;;47.40;21.00;;;;;;;;;;5054594;28;20044;-86
2023/12/07 12:18:16;;;;;;;55.88;20.65;;;;;;;;;;5051930;28;20101;-86
2023/12/07 12:20:43;;;;;;;55.00;21.13;;;;;;;;;;5067233;28;20524;-86
2023/12/07 12:23:09;;;;;;;64.63;21.92;;;;;;;;;;5071806;28;20067;-85
2023/12/07 12:25:35;;;;;;;59.53;21.13;;;;;;;;;;5055046;28;20048;-87
2023/12/07 12:28:05;;;;;;;48.85;21.05;;;;;;;;;;5068033;28;20139;-85
2023/12/07 12:30:31;;;;;;;64.13;22.35;;;;;;;;;;5065001;28;20050;-86
2023/12/07 12:32:59;;;;;;;59.17;21.90;;;;;;;;;;5061578;28;20040;-86
2023/12/07 12:35:26;;;;;;;52.40;21.77;;;;;;;;;;5054184;28;20135;-86
2023/12/07 12:37:52;;;;;;;58.25;22.63;;;;;;;;;;5072167;28;20078;-85
2023/12/07 12:40:18;;;;;;;53.38;22.33;;;;;;;;;;5061498;28;20063;-86
2023/12/07 12:42:48;;;;;;;58.92;21.98;;;;;;;;;;5050967;28;20395;-85
2023/12/07 12:45:15;;;;;;;56.97;22.27;;;;;;;;;;5070462;28;20064;-86
2023/12/07 12:47:41;;;;;;;78.05;25.20;;;;;;;;;;5070983;28;20397;-84
2023/12/07 12:50:09;;;;;;;64.78;23.35;;;;;;;;;;5069864;28;20036;-84
2023/12/07 12:52:35;;;;;;;54.58;24.05;;;;;;;;;;5069963;28;20083;-84
2023/12/07 12:55:02;;;;;;;57.35;24.05;;;;;;;;;;5054018;28;20100;-83
2023/12/07 12:57:28;;;;;;;67.38;25.23;;;;;;;;;;5070508;28;20829;-85
2023/12/07 12:59:54;;;;;;;49.97;23.50;;;;;;;;;;5053124;28;20094;-84
2023/12/07 13:02:21;;;;;;;53.10;24.92;;;;;;;;;;5051142;28;20127;-86
2023/12/07 13:04:47;;;;;;;50.03;21.38;;;;;;;;;;5067703;28;20059;-87
2023/12/07 13:07:14;;;;;;;55.97;21.98;;;;;;;;;;5069273;28;20836;-88
2023/12/07 13:09:40;;;;;;;54.20;22.75;;;;;;;;;;5070028;28;20044;-89
2023/12/07 13:12:07;;;;;;;55.70;21.80;;;;;;;;;;5063396;28;20051;-92
2023/12/07 13:14:42;;;;;;;53.38;23.35;;;;;;;;;;5061926;28;20795;-92
2023/12/07 13:17:08;;;;;;;52.53;22.63;;;;;;;;;;5057451;28;20041;-94
2023/12/07 13:19:37;;;;;;;56.38;23.60;;;;;;;;;;5040360;28;20552;-92
2023/12/07 13:22:04;;;;;;;57.22;24.52;;;;;;;;;;5054850;28;20200;-92
2023/12/07 13:24:30;;;;;;;53.70;22.45;;;;;;;;;;5034818;28;20910;-89
2023/12/07 13:26:57;;;;;;;53.15;23.30;;;;;;;;;;5049532;28;20044;-89
2023/12/07 13:29:24;;;;;;;51.90;23.27;;;;;;;;;;5050739;28;20051;-87
2023/12/07 13:31:50;;;;;;;52.20;23.23;;;;;;;;;;5049416;28;20072;-89
2023/12/07 13:34:17;;;;;;;57.50;23.52;;;;;;;;;;5051803;28;20051;-89
2023/12/07 13:36:49;;;;;;;49.70;22.88;;;;;;;;;;5053808;28;20449;-94
2023/12/07 13:39:15;;;;;;;50.85;22.73;;;;;;;;;;5057002;28;20565;-92
2023/12/07 13:41:49;;;;;;;57.75;24.20;;;;;;;;;;5056444;28;20091;-90
2023/12/07 13:44:24;;;;;;;60.35;24.08;;;;;;;;;;5056262;28;20441;-93
2023/12/07 13:46:50;;;;;;;57.25;24.55;;;;;;;;;;5042505;28;20462;-87
2023/12/07 13:49:16;;;;;;;60.30;24.33;;;;;;;;;;5051786;28;20451;-86
2023/12/07 13:51:42;;;;;;;64.22;25.58;;;;;;;;;;5064469;28;20057;-87
2023/12/07 13:54:10;;;;;;;66.80;26.02;;;;;;;;;;5056491;28;20469;-90
2023/12/07 13:56:37;;;;;;;74.50;26.65;;;;;;;;;;5057375;28;20444;-90
2023/12/07 13:59:03;;;;;;;68.07;27.30;;;;;;;;;;5073495;28;20131;-88
2023/12/07 14:01:31;;;;;;;70.82;25.75;;;;;;;;;;5040691;28;20076;-86
2023/12/07 14:03:58;;;;;;;74.65;26.77;;;;;;;;;;5054976;28;20491;-85
2023/12/07 14:06:27;;;;;;;81.57;28.50;;;;;;;;;;5055405;28;20107;-86
2023/12/07 14:08:53;;;;;;;87.05;27.95;;;;;;;;;;5052985;28;20047;-87
2023/12/07 14:11:19;;;;;;;78.57;26.67;;;;;;;;;;5047996;28;20758;-85
2023/12/07 14:13:46;;;;;;;90.30;29.85;;;;;;;;;;5051826;28;20398;-86
2023/12/07 14:16:13;;;;;;;77.18;26.98;;;;;;;;;;5052073;28;20045;-88